sensor_id;sensor_type;location;lat;lon;timestamp;pressure;altitude;pressure_sealevel;temperature;humidity
12360;BME280;6244;51.460;7.090;2023-04-29T00:02:05;100322.09;;;11.76;79.81
12360;BME280;6244;51.460;7.090;2023-04-29T00:07:01;100325.56;;;11.48;81.11
12360;BME280;6244;51.460;7.090;2023-04-29T00:11:59;100326.31;;;11.64;80.80
12360;BME280;6244;51.460;7.090;2023-04-29T00:16:56;100333.94;;;11.55;81.26
12360;BME280;6244;51.460;7.090;2023-04-29T00:21:53;100335.44;;;11.73;80.96
12360;BME280;6244;51.460;7.090;2023-04-29T00:26:49;100348.47;;;11.16;81.70
12360;BME280;6244;51.460;7.090;2023-04-29T00:31:47;100349.00;;;11.37;81.28
12360;BME280;6244;51.460;7.090;2023-04-29T00:36:44;100351.84;;;11.62;80.68
12360;BME280;6244;51.460;7.090;2023-04-29T00:41:40;100363.59;;;11.71;79.72
12360;BME280;6244;51.460;7.090;2023-04-29T00:46:37;100354.00;;;11.56;79.60
12360;BME280;6244;51.460;7.090;2023-04-29T00:51:35;100365.66;;;11.66;79.27
12360;BME280;6244;51.460;7.090;2023-04-29T00:56:34;100379.66;;;11.66;79.65
12360;BME280;6244;51.460;7.090;2023-04-29T01:01:31;100377.06;;;11.51;78.83
12360;BME280;6244;51.460;7.090;2023-04-29T01:06:36;100379.25;;;11.58;79.68
12360;BME280;6244;51.460;7.090;2023-04-29T01:11:48;100393.16;;;11.60;79.50
12360;BME280;6244;51.460;7.090;2023-04-29T01:16:50;100400.31;;;11.72;78.84
12360;BME280;6244;51.460;7.090;2023-04-29T01:21:48;100406.69;;;11.68;78.17
12360;BME280;6244;51.460;7.090;2023-04-29T01:26:50;100406.84;;;11.65;78.60
12360;BME280;6244;51.460;7.090;2023-04-29T01:31:57;100406.84;;;11.65;78.25
12360;BME280;6244;51.460;7.090;2023-04-29T01:37:05;100422.00;;;11.16;78.95
12360;BME280;6244;51.460;7.090;2023-04-29T01:42:09;100419.47;;;11.14;81.00
12360;BME280;6244;51.460;7.090;2023-04-29T01:47:09;100423.59;;;11.34;79.63
12360;BME280;6244;51.460;7.090;2023-04-29T01:52:08;100415.19;;;11.28;80.34
12360;BME280;6244;51.460;7.090;2023-04-29T01:57:06;100423.63;;;11.18;80.33
12360;BME280;6244;51.460;7.090;2023-04-29T02:02:03;100432.16;;;11.22;79.85
12360;BME280;6244;51.460;7.090;2023-04-29T02:06:59;100432.78;;;11.11;81.15
12360;BME280;6244;51.460;7.090;2023-04-29T02:11:57;100446.75;;;11.12;80.85
12360;BME280;6244;51.460;7.090;2023-04-29T02:16:55;100446.81;;;11.26;79.13
12360;BME280;6244;51.460;7.090;2023-04-29T02:21:52;100450.56;;;11.22;79.65
12360;BME280;6244;51.460;7.090;2023-04-29T02:26:48;100459.28;;;10.91;79.46
12360;BME280;6244;51.460;7.090;2023-04-29T02:31:45;100464.88;;;11.01;79.91
12360;BME280;6244;51.460;7.090;2023-04-29T02:36:43;100466.84;;;10.97;79.10
12360;BME280;6244;51.460;7.090;2023-04-29T02:41:39;100469.13;;;11.19;79.05
12360;BME280;6244;51.460;7.090;2023-04-29T02:46:36;100474.38;;;10.56;78.50
12360;BME280;6244;51.460;7.090;2023-04-29T02:51:35;100476.38;;;10.51;80.81
12360;BME280;6244;51.460;7.090;2023-04-29T02:56:32;100491.63;;;10.60;79.56
12360;BME280;6244;51.460;7.090;2023-04-29T03:01:29;100493.50;;;10.74;80.11
12360;BME280;6244;51.460;7.090;2023-04-29T03:06:26;100494.09;;;10.79;79.24
12360;BME280;6244;51.460;7.090;2023-04-29T03:11:22;100499.34;;;10.79;79.17
12360;BME280;6244;51.460;7.090;2023-04-29T03:16:21;100506.72;;;10.88;79.12
12360;BME280;6244;51.460;7.090;2023-04-29T03:21:17;100503.50;;;10.99;78.77
12360;BME280;6244;51.460;7.090;2023-04-29T03:26:14;100504.09;;;10.88;78.72
12360;BME280;6244;51.460;7.090;2023-04-29T03:31:10;100512.50;;;10.95;78.82
12360;BME280;6244;51.460;7.090;2023-04-29T03:36:08;100513.75;;;10.87;78.83
12360;BME280;6244;51.460;7.090;2023-04-29T03:41:05;100518.06;;;10.73;79.43
12360;BME280;6244;51.460;7.090;2023-04-29T03:46:01;100515.44;;;10.88;78.77
12360;BME280;6244;51.460;7.090;2023-04-29T03:50:58;100522.53;;;10.71;78.82
12360;BME280;6244;51.460;7.090;2023-04-29T03:55:56;100517.69;;;10.63;80.24
12360;BME280;6244;51.460;7.090;2023-04-29T04:00:53;100511.78;;;10.59;79.94
12360;BME280;6244;51.460;7.090;2023-04-29T04:05:50;100528.84;;;10.51;80.51
12360;BME280;6244;51.460;7.090;2023-04-29T04:10:47;100533.59;;;10.60;80.42
12360;BME280;6244;51.460;7.090;2023-04-29T04:15:49;100547.00;;;10.71;80.35
12360;BME280;6244;51.460;7.090;2023-04-29T04:20:46;100544.84;;;10.79;79.83
12360;BME280;6244;51.460;7.090;2023-04-29T04:25:46;100546.53;;;10.80;79.48
12360;BME280;6244;51.460;7.090;2023-04-29T04:30:45;100560.50;;;10.81;79.69
12360;BME280;6244;51.460;7.090;2023-04-29T04:35:43;100558.00;;;10.78;79.59
12360;BME280;6244;51.460;7.090;2023-04-29T04:40:40;100569.13;;;10.83;79.49
12360;BME280;6244;51.460;7.090;2023-04-29T04:45:36;100575.78;;;10.73;79.67
12360;BME280;6244;51.460;7.090;2023-04-29T04:50:33;100580.25;;;10.38;80.89
12360;BME280;6244;51.460;7.090;2023-04-29T04:55:31;100582.88;;;10.55;80.63
12360;BME280;6244;51.460;7.090;2023-04-29T05:00:27;100584.75;;;10.69;80.71
12360;BME280;6244;51.460;7.090;2023-04-29T05:05:24;100593.13;;;10.59;79.76
12360;BME280;6244;51.460;7.090;2023-04-29T05:10:20;100605.13;;;10.64;80.68
12360;BME280;6244;51.460;7.090;2023-04-29T05:15:21;100604.75;;;10.71;79.14
12360;BME280;6244;51.460;7.090;2023-04-29T05:20:19;100612.69;;;10.70;79.58
12360;BME280;6244;51.460;7.090;2023-04-29T05:25:16;100608.91;;;10.75;79.42
12360;BME280;6244;51.460;7.090;2023-04-29T05:30:13;100615.19;;;10.88;78.96
12360;BME280;6244;51.460;7.090;2023-04-29T05:35:11;100623.16;;;10.87;79.05
12360;BME280;6244;51.460;7.090;2023-04-29T05:40:08;100628.75;;;10.64;78.66
12360;BME280;6244;51.460;7.090;2023-04-29T05:45:06;100628.38;;;10.71;78.92
12360;BME280;6244;51.460;7.090;2023-04-29T05:50:04;100641.94;;;10.79;78.92
12360;BME280;6244;51.460;7.090;2023-04-29T05:55:02;100652.28;;;10.82;78.44
12360;BME280;6244;51.460;7.090;2023-04-29T05:59:59;100655.28;;;10.92;78.15
12360;BME280;6244;51.460;7.090;2023-04-29T06:04:55;100652.97;;;10.86;77.63
12360;BME280;6244;51.460;7.090;2023-04-29T06:09:52;100668.25;;;10.78;78.66
12360;BME280;6244;51.460;7.090;2023-04-29T06:14:50;100675.59;;;10.71;78.03
12360;BME280;6244;51.460;7.090;2023-04-29T06:19:46;100683.44;;;10.88;77.84
12360;BME280;6244;51.460;7.090;2023-04-29T06:24:43;100690.28;;;11.08;77.37
12360;BME280;6244;51.460;7.090;2023-04-29T06:29:39;100694.66;;;10.92;76.38
12360;BME280;6244;51.460;7.090;2023-04-29T06:34:37;100695.72;;;10.88;77.72
12360;BME280;6244;51.460;7.090;2023-04-29T06:39:34;100704.31;;;10.74;76.63
12360;BME280;6244;51.460;7.090;2023-04-29T06:44:30;100712.41;;;10.87;77.24
12360;BME280;6244;51.460;7.090;2023-04-29T06:49:27;100724.91;;;10.99;77.35
12360;BME280;6244;51.460;7.090;2023-04-29T06:54:25;100734.59;;;10.81;76.82
12360;BME280;6244;51.460;7.090;2023-04-29T06:59:22;100733.94;;;10.76;77.41
12360;BME280;6244;51.460;7.090;2023-04-29T07:04:19;100739.50;;;10.87;77.12
12360;BME280;6244;51.460;7.090;2023-04-29T07:09:16;100749.41;;;10.82;77.58
12360;BME280;6244;51.460;7.090;2023-04-29T07:14:14;100749.56;;;10.79;77.42
12360;BME280;6244;51.460;7.090;2023-04-29T07:19:11;100759.97;;;10.98;77.17
12360;BME280;6244;51.460;7.090;2023-04-29T07:24:07;100764.81;;;10.88;76.65
12360;BME280;6244;51.460;7.090;2023-04-29T07:29:03;100773.78;;;10.84;76.87
12360;BME280;6244;51.460;7.090;2023-04-29T07:34:01;100783.56;;;10.64;77.96
12360;BME280;6244;51.460;7.090;2023-04-29T07:38:58;100793.88;;;10.68;78.75
12360;BME280;6244;51.460;7.090;2023-04-29T07:43:54;100799.81;;;10.72;78.75
12360;BME280;6244;51.460;7.090;2023-04-29T07:48:51;100809.44;;;10.71;78.88
12360;BME280;6244;51.460;7.090;2023-04-29T07:53:49;100819.94;;;10.71;78.95
12360;BME280;6244;51.460;7.090;2023-04-29T07:58:45;100820.38;;;10.62;79.49
12360;BME280;6244;51.460;7.090;2023-04-29T08:03:42;100816.84;;;10.63;79.75
12360;BME280;6244;51.460;7.090;2023-04-29T08:08:39;100823.25;;;10.75;79.50
12360;BME280;6244;51.460;7.090;2023-04-29T08:13:37;100829.19;;;10.61;79.54
12360;BME280;6244;51.460;7.090;2023-04-29T08:18:33;100841.81;;;10.53;78.93
12360;BME280;6244;51.460;7.090;2023-04-29T08:23:30;100844.13;;;10.42;79.89
12360;BME280;6244;51.460;7.090;2023-04-29T08:28:28;100846.28;;;10.51;79.70
12360;BME280;6244;51.460;7.090;2023-04-29T08:33:26;100853.16;;;10.53;80.03
12360;BME280;6244;51.460;7.090;2023-04-29T08:38:22;100859.69;;;10.64;79.95
12360;BME280;6244;51.460;7.090;2023-04-29T08:43:19;100860.88;;;10.75;79.08
12360;BME280;6244;51.460;7.090;2023-04-29T08:48:17;100861.16;;;10.69;79.38
12360;BME280;6244;51.460;7.090;2023-04-29T08:53:15;100874.75;;;10.77;78.70
12360;BME280;6244;51.460;7.090;2023-04-29T08:58:12;100879.94;;;10.79;78.75
12360;BME280;6244;51.460;7.090;2023-04-29T09:03:13;100889.16;;;10.87;78.72
12360;BME280;6244;51.460;7.090;2023-04-29T09:08:11;100891.25;;;10.98;78.66
12360;BME280;6244;51.460;7.090;2023-04-29T09:13:22;100889.31;;;11.02;78.15
12360;BME280;6244;51.460;7.090;2023-04-29T09:18:41;100903.00;;;11.08;78.04
12360;BME280;6244;51.460;7.090;2023-04-29T09:23:37;100905.22;;;10.99;77.83
12360;BME280;6244;51.460;7.090;2023-04-29T09:28:35;100910.91;;;10.89;77.86
12360;BME280;6244;51.460;7.090;2023-04-29T09:33:48;100916.56;;;10.99;78.32
12360;BME280;6244;51.460;7.090;2023-04-29T09:38:52;100923.00;;;10.94;77.13
12360;BME280;6244;51.460;7.090;2023-04-29T09:44:01;100929.88;;;10.96;77.63
12360;BME280;6244;51.460;7.090;2023-04-29T09:48:59;100920.06;;;11.00;77.64
12360;BME280;6244;51.460;7.090;2023-04-29T09:53:56;100942.88;;;11.16;77.70
12360;BME280;6244;51.460;7.090;2023-04-29T09:58:54;100933.06;;;11.37;77.24
12360;BME280;6244;51.460;7.090;2023-04-29T10:03:53;100933.16;;;11.36;75.91
12360;BME280;6244;51.460;7.090;2023-04-29T10:08:51;100945.00;;;11.44;76.38
12360;BME280;6244;51.460;7.090;2023-04-29T10:13:49;100942.75;;;11.71;76.91
12360;BME280;6244;51.460;7.090;2023-04-29T10:18:52;100938.53;;;12.02;76.55
12360;BME280;6244;51.460;7.090;2023-04-29T10:23:50;100941.16;;;12.19;75.18
12360;BME280;6244;51.460;7.090;2023-04-29T10:28:50;100940.16;;;12.38;74.36
12360;BME280;6244;51.460;7.090;2023-04-29T10:33:48;100938.56;;;12.51;73.80
12360;BME280;6244;51.460;7.090;2023-04-29T10:38:48;100949.25;;;12.63;72.88
12360;BME280;6244;51.460;7.090;2023-04-29T10:43:47;100950.97;;;12.64;72.46
12360;BME280;6244;51.460;7.090;2023-04-29T10:48:44;100948.19;;;12.83;71.57
12360;BME280;6244;51.460;7.090;2023-04-29T10:54:06;100954.81;;;12.90;71.88
12360;BME280;6244;51.460;7.090;2023-04-29T10:59:03;100955.91;;;13.02;71.87
12360;BME280;6244;51.460;7.090;2023-04-29T11:04:01;100956.97;;;13.14;70.45
12360;BME280;6244;51.460;7.090;2023-04-29T11:09:02;100960.88;;;13.38;69.89
12360;BME280;6244;51.460;7.090;2023-04-29T11:14:01;100971.13;;;13.59;69.21
12360;BME280;6244;51.460;7.090;2023-04-29T11:19:05;100968.88;;;13.67;67.60
12360;BME280;6244;51.460;7.090;2023-04-29T11:24:05;100963.03;;;13.62;67.55
12360;BME280;6244;51.460;7.090;2023-04-29T11:29:01;100957.13;;;13.72;67.01
12360;BME280;6244;51.460;7.090;2023-04-29T11:33:58;100963.56;;;13.97;67.38
12360;BME280;6244;51.460;7.090;2023-04-29T11:38:55;100969.91;;;14.37;65.75
12360;BME280;6244;51.460;7.090;2023-04-29T11:43:55;100968.13;;;14.66;63.24
12360;BME280;6244;51.460;7.090;2023-04-29T11:48:53;100961.47;;;14.87;61.82
12360;BME280;6244;51.460;7.090;2023-04-29T11:53:50;100966.75;;;14.87;61.19
12360;BME280;6244;51.460;7.090;2023-04-29T11:58:46;100968.88;;;15.09;61.05
12360;BME280;6244;51.460;7.090;2023-04-29T12:03:44;100975.13;;;14.53;61.87
12360;BME280;6244;51.460;7.090;2023-04-29T12:08:41;100973.84;;;14.01;62.75
12360;BME280;6244;51.460;7.090;2023-04-29T12:13:37;100973.69;;;14.19;66.52
12360;BME280;6244;51.460;7.090;2023-04-29T12:18:34;100958.97;;;14.72;62.99
12360;BME280;6244;51.460;7.090;2023-04-29T12:23:34;100966.81;;;14.59;60.49
12360;BME280;6244;51.460;7.090;2023-04-29T12:28:32;100966.25;;;14.39;61.98
12360;BME280;6244;51.460;7.090;2023-04-29T12:33:28;100974.88;;;14.13;63.25
12360;BME280;6244;51.460;7.090;2023-04-29T12:38:27;100980.44;;;13.94;63.38
12360;BME280;6244;51.460;7.090;2023-04-29T12:43:27;100979.38;;;13.82;64.36
12360;BME280;6244;51.460;7.090;2023-04-29T12:48:28;100979.91;;;14.03;62.56
12360;BME280;6244;51.460;7.090;2023-04-29T12:53:25;100976.41;;;14.17;61.89
12360;BME280;6244;51.460;7.090;2023-04-29T12:58:22;100977.34;;;14.16;60.93
12360;BME280;6244;51.460;7.090;2023-04-29T13:03:20;100968.09;;;13.95;60.56
12360;BME280;6244;51.460;7.090;2023-04-29T13:08:17;100975.72;;;14.14;61.49
12360;BME280;6244;51.460;7.090;2023-04-29T13:13:14;100977.47;;;14.29;60.92
12360;BME280;6244;51.460;7.090;2023-04-29T13:18:11;100986.38;;;14.12;60.16
12360;BME280;6244;51.460;7.090;2023-04-29T13:23:09;100984.78;;;14.09;59.35
12360;BME280;6244;51.460;7.090;2023-04-29T13:28:06;100987.69;;;13.91;59.76
12360;BME280;6244;51.460;7.090;2023-04-29T13:33:02;100984.00;;;13.79;60.49
12360;BME280;6244;51.460;7.090;2023-04-29T13:37:59;100987.16;;;13.70;62.21
12360;BME280;6244;51.460;7.090;2023-04-29T13:42:57;100989.81;;;13.70;61.85
12360;BME280;6244;51.460;7.090;2023-04-29T13:47:53;100992.72;;;13.65;61.38
12360;BME280;6244;51.460;7.090;2023-04-29T13:52:50;100996.88;;;13.69;61.41
12360;BME280;6244;51.460;7.090;2023-04-29T13:57:46;101002.38;;;13.80;61.03
12360;BME280;6244;51.460;7.090;2023-04-29T14:02:44;101005.78;;;13.97;60.78
12360;BME280;6244;51.460;7.090;2023-04-29T14:07:41;101002.69;;;14.04;60.78
12360;BME280;6244;51.460;7.090;2023-04-29T14:12:38;100997.72;;;14.14;58.78
12360;BME280;6244;51.460;7.090;2023-04-29T14:17:34;101007.25;;;14.31;59.48
12360;BME280;6244;51.460;7.090;2023-04-29T14:22:32;101003.09;;;14.27;58.99
12360;BME280;6244;51.460;7.090;2023-04-29T14:27:29;101006.00;;;14.08;59.85
12360;BME280;6244;51.460;7.090;2023-04-29T14:32:25;101008.22;;;14.00;59.25
12360;BME280;6244;51.460;7.090;2023-04-29T14:37:22;101013.75;;;13.81;61.11
12360;BME280;6244;51.460;7.090;2023-04-29T14:42:20;101019.03;;;13.81;61.06
12360;BME280;6244;51.460;7.090;2023-04-29T14:47:16;101026.56;;;13.87;61.02
12360;BME280;6244;51.460;7.090;2023-04-29T14:52:13;101031.84;;;14.17;60.73
12360;BME280;6244;51.460;7.090;2023-04-29T14:57:09;101036.84;;;14.36;61.22
12360;BME280;6244;51.460;7.090;2023-04-29T15:02:07;101033.78;;;14.58;58.17
12360;BME280;6244;51.460;7.090;2023-04-29T15:07:03;101034.44;;;14.61;55.81
12360;BME280;6244;51.460;7.090;2023-04-29T15:12:00;101036.31;;;14.45;58.70
12360;BME280;6244;51.460;7.090;2023-04-29T15:16:57;101032.84;;;14.45;58.95
12360;BME280;6244;51.460;7.090;2023-04-29T15:21:55;101040.72;;;14.30;58.40
12360;BME280;6244;51.460;7.090;2023-04-29T15:26:51;101040.63;;;14.32;58.64
12360;BME280;6244;51.460;7.090;2023-04-29T15:31:48;101040.06;;;14.27;57.54
12360;BME280;6244;51.460;7.090;2023-04-29T15:36:46;101041.28;;;14.35;58.63
12360;BME280;6244;51.460;7.090;2023-04-29T15:41:44;101037.16;;;14.60;57.62
12360;BME280;6244;51.460;7.090;2023-04-29T15:46:40;101046.09;;;14.43;57.23
12360;BME280;6244;51.460;7.090;2023-04-29T15:51:37;101043.47;;;14.43;56.90
12360;BME280;6244;51.460;7.090;2023-04-29T15:56:33;101042.81;;;14.39;56.07
12360;BME280;6244;51.460;7.090;2023-04-29T16:01:31;101042.75;;;14.55;56.46
12360;BME280;6244;51.460;7.090;2023-04-29T16:06:28;101057.66;;;14.56;57.64
12360;BME280;6244;51.460;7.090;2023-04-29T16:11:25;101057.44;;;14.45;56.83
12360;BME280;6244;51.460;7.090;2023-04-29T16:16:22;101059.66;;;14.37;58.18
12360;BME280;6244;51.460;7.090;2023-04-29T16:21:21;101061.44;;;14.36;57.49
12360;BME280;6244;51.460;7.090;2023-04-29T16:26:17;101054.66;;;14.18;57.90
12360;BME280;6244;51.460;7.090;2023-04-29T16:31:14;101061.31;;;14.09;57.92
12360;BME280;6244;51.460;7.090;2023-04-29T16:36:11;101051.78;;;14.07;57.98
12360;BME280;6244;51.460;7.090;2023-04-29T16:41:09;101054.22;;;13.96;58.12
12360;BME280;6244;51.460;7.090;2023-04-29T16:46:05;101057.94;;;13.77;57.99
12360;BME280;6244;51.460;7.090;2023-04-29T16:51:02;101068.16;;;13.68;58.78
12360;BME280;6244;51.460;7.090;2023-04-29T16:55:59;101061.84;;;13.70;58.23
12360;BME280;6244;51.460;7.090;2023-04-29T17:00:57;101062.78;;;13.69;58.22
12360;BME280;6244;51.460;7.090;2023-04-29T17:05:53;101067.50;;;13.64;58.22
12360;BME280;6244;51.460;7.090;2023-04-29T17:10:50;101067.84;;;13.58;59.26
12360;BME280;6244;51.460;7.090;2023-04-29T17:15:48;101073.47;;;13.52;59.84
12360;BME280;6244;51.460;7.090;2023-04-29T17:20:45;101081.03;;;13.42;60.84
12360;BME280;6244;51.460;7.090;2023-04-29T17:25:42;101080.94;;;13.44;61.45
12360;BME280;6244;51.460;7.090;2023-04-29T17:30:38;101079.16;;;13.44;60.40
12360;BME280;6244;51.460;7.090;2023-04-29T17:35:35;101078.31;;;13.44;61.12
12360;BME280;6244;51.460;7.090;2023-04-29T17:40:33;101078.41;;;13.42;61.16
12360;BME280;6244;51.460;7.090;2023-04-29T17:45:30;101078.72;;;13.36;61.46
12360;BME280;6244;51.460;7.090;2023-04-29T17:50:26;101074.75;;;13.29;61.12
12360;BME280;6244;51.460;7.090;2023-04-29T17:55:23;101079.50;;;13.22;61.56
12360;BME280;6244;51.460;7.090;2023-04-29T18:00:21;101078.81;;;13.19;61.77
12360;BME280;6244;51.460;7.090;2023-04-29T18:05:19;101088.44;;;13.20;61.92
12360;BME280;6244;51.460;7.090;2023-04-29T18:10:16;101093.69;;;13.20;62.73
12360;BME280;6244;51.460;7.090;2023-04-29T18:15:12;101092.00;;;13.19;62.89
12360;BME280;6244;51.460;7.090;2023-04-29T18:20:12;101091.34;;;13.14;62.23
12360;BME280;6244;51.460;7.090;2023-04-29T18:25:09;101091.53;;;13.11;62.84
12360;BME280;6244;51.460;7.090;2023-04-29T18:30:07;101097.81;;;13.08;64.12
12360;BME280;6244;51.460;7.090;2023-04-29T18:35:05;101099.78;;;13.05;63.97
12360;BME280;6244;51.460;7.090;2023-04-29T18:40:03;101106.91;;;13.03;63.56
12360;BME280;6244;51.460;7.090;2023-04-29T18:45:00;101106.31;;;12.98;64.80
12360;BME280;6244;51.460;7.090;2023-04-29T18:49:57;101109.41;;;12.88;65.91
12360;BME280;6244;51.460;7.090;2023-04-29T18:54:54;101104.53;;;12.65;66.68
12360;BME280;6244;51.460;7.090;2023-04-29T18:59:52;101105.09;;;12.37;66.88
12360;BME280;6244;51.460;7.090;2023-04-29T19:04:49;101112.53;;;12.12;67.15
12360;BME280;6244;51.460;7.090;2023-04-29T19:09:46;101115.53;;;11.87;68.01
12360;BME280;6244;51.460;7.090;2023-04-29T19:14:42;101120.59;;;11.72;68.55
12360;BME280;6244;51.460;7.090;2023-04-29T19:19:40;101131.59;;;11.62;69.23
12360;BME280;6244;51.460;7.090;2023-04-29T19:24:36;101138.53;;;11.45;69.67
12360;BME280;6244;51.460;7.090;2023-04-29T19:29:33;101137.47;;;11.31;68.99
12360;BME280;6244;51.460;7.090;2023-04-29T19:34:31;101142.84;;;11.46;69.05
12360;BME280;6244;51.460;7.090;2023-04-29T19:39:29;101144.56;;;11.47;68.43
12360;BME280;6244;51.460;7.090;2023-04-29T19:44:25;101146.13;;;11.33;68.31
12360;BME280;6244;51.460;7.090;2023-04-29T19:49:22;101145.47;;;11.28;68.42
12360;BME280;6244;51.460;7.090;2023-04-29T19:54:18;101147.81;;;11.34;68.24
12360;BME280;6244;51.460;7.090;2023-04-29T19:59:16;101141.72;;;11.33;68.77
12360;BME280;6244;51.460;7.090;2023-04-29T20:04:13;101150.22;;;11.38;68.55
12360;BME280;6244;51.460;7.090;2023-04-29T20:09:09;101160.81;;;11.37;68.81
12360;BME280;6244;51.460;7.090;2023-04-29T20:14:06;101168.16;;;11.30;68.78
12360;BME280;6244;51.460;7.090;2023-04-29T20:19:04;101176.09;;;11.29;68.62
12360;BME280;6244;51.460;7.090;2023-04-29T20:24:01;101182.69;;;11.18;68.63
12360;BME280;6244;51.460;7.090;2023-04-29T20:28:57;101189.78;;;11.16;68.73
12360;BME280;6244;51.460;7.090;2023-04-29T20:33:54;101193.53;;;11.11;68.59
12360;BME280;6244;51.460;7.090;2023-04-29T20:38:52;101200.22;;;11.18;67.99
12360;BME280;6244;51.460;7.090;2023-04-29T20:43:49;101201.41;;;11.11;67.55
12360;BME280;6244;51.460;7.090;2023-04-29T20:48:46;101214.59;;;11.09;67.52
12360;BME280;6244;51.460;7.090;2023-04-29T20:53:43;101211.75;;;11.14;67.02
12360;BME280;6244;51.460;7.090;2023-04-29T20:58:41;101208.22;;;11.15;67.20
12360;BME280;6244;51.460;7.090;2023-04-29T21:03:37;101212.25;;;11.03;66.62
12360;BME280;6244;51.460;7.090;2023-04-29T21:08:34;101211.47;;;11.01;66.33
12360;BME280;6244;51.460;7.090;2023-04-29T21:13:31;101213.44;;;10.96;66.41
12360;BME280;6244;51.460;7.090;2023-04-29T21:18:29;101221.78;;;10.85;66.69
12360;BME280;6244;51.460;7.090;2023-04-29T21:23:25;101222.94;;;10.78;66.89
12360;BME280;6244;51.460;7.090;2023-04-29T21:28:21;101219.81;;;10.70;66.96
12360;BME280;6244;51.460;7.090;2023-04-29T21:33:18;101232.22;;;10.67;66.63
12360;BME280;6244;51.460;7.090;2023-04-29T21:38:16;101237.66;;;10.62;66.39
12360;BME280;6244;51.460;7.090;2023-04-29T21:43:14;101248.53;;;10.53;66.64
12360;BME280;6244;51.460;7.090;2023-04-29T21:48:13;101240.47;;;10.57;66.60
12360;BME280;6244;51.460;7.090;2023-04-29T21:53:11;101253.75;;;10.54;66.00
12360;BME280;6244;51.460;7.090;2023-04-29T21:58:09;101249.56;;;10.49;66.51
12360;BME280;6244;51.460;7.090;2023-04-29T22:03:06;101251.66;;;10.41;66.03
12360;BME280;6244;51.460;7.090;2023-04-29T22:08:05;101260.69;;;10.34;66.38
12360;BME280;6244;51.460;7.090;2023-04-29T22:13:02;101267.00;;;10.29;66.40
12360;BME280;6244;51.460;7.090;2023-04-29T22:18:00;101267.31;;;10.20;66.65
12360;BME280;6244;51.460;7.090;2023-04-29T22:22:57;101272.78;;;10.14;67.00
12360;BME280;6244;51.460;7.090;2023-04-29T22:27:53;101280.28;;;10.01;66.88
12360;BME280;6244;51.460;7.090;2023-04-29T22:32:50;101286.16;;;10.08;67.14
12360;BME280;6244;51.460;7.090;2023-04-29T22:37:48;101293.34;;;10.03;66.82
12360;BME280;6244;51.460;7.090;2023-04-29T22:42:45;101293.13;;;10.09;67.15
12360;BME280;6244;51.460;7.090;2023-04-29T22:47:41;101290.50;;;9.86;67.67
12360;BME280;6244;51.460;7.090;2023-04-29T22:52:38;101302.59;;;9.66;68.48
12360;BME280;6244;51.460;7.090;2023-04-29T22:57:36;101313.63;;;9.51;69.28
12360;BME280;6244;51.460;7.090;2023-04-29T23:02:33;101308.44;;;9.50;69.42
12360;BME280;6244;51.460;7.090;2023-04-29T23:07:29;101313.22;;;9.38;69.91
12360;BME280;6244;51.460;7.090;2023-04-29T23:12:26;101310.59;;;9.38;70.29
12360;BME280;6244;51.460;7.090;2023-04-29T23:17:24;101321.78;;;9.44;70.37
12360;BME280;6244;51.460;7.090;2023-04-29T23:22:20;101328.56;;;9.49;70.10
12360;BME280;6244;51.460;7.090;2023-04-29T23:27:17;101335.31;;;9.55;69.97
12360;BME280;6244;51.460;7.090;2023-04-29T23:32:13;101335.66;;;9.70;69.56
12360;BME280;6244;51.460;7.090;2023-04-29T23:37:11;101334.44;;;9.79;69.37
12360;BME280;6244;51.460;7.090;2023-04-29T23:42:07;101327.34;;;9.83;68.77
12360;BME280;6244;51.460;7.090;2023-04-29T23:47:04;101329.84;;;9.86;68.16
12360;BME280;6244;51.460;7.090;2023-04-29T23:52:01;101325.50;;;9.85;67.84
12360;BME280;6244;51.460;7.090;2023-04-29T23:57:00;101332.78;;;9.77;67.42
